sensor_id;sensor_type;location;lat;lon;timestamp;P1;durP1;ratioP1;P2;durP2;ratioP2
3002;SDS011;1511;51.326;12.344;2023-09-30T00:00:06;2.40;;;1.00;;
3002;SDS011;1511;51.326;12.344;2023-09-30T00:02:33;2.60;;;0.90;;
3002;SDS011;1511;51.326;12.344;2023-09-30T00:04:59;1.20;;;0.90;;
3002;SDS011;1511;51.326;12.344;2023-09-30T00:07:28;1.90;;;0.90;;
3002;SDS011;1511;51.326;12.344;2023-09-30T00:09:54;1.37;;;0.70;;
3002;SDS011;1511;51.326;12.344;2023-09-30T00:12:20;5.03;;;1.20;;
3002;SDS011;1511;51.326;12.344;2023-09-30T00:14:48;2.83;;;1.23;;
3002;SDS011;1511;51.326;12.344;2023-09-30T00:17:17;8.03;;;1.27;;
3002;SDS011;1511;51.326;12.344;2023-09-30T00:19:42;2.40;;;1.20;;
3002;SDS011;1511;51.326;12.344;2023-09-30T00:22:10;1.43;;;1.10;;
3002;SDS011;1511;51.326;12.344;2023-09-30T00:24:38;2.43;;;0.80;;
3002;SDS011;1511;51.326;12.344;2023-09-30T00:27:04;1.00;;;0.90;;
3002;SDS011;1511;51.326;12.344;2023-09-30T00:29:30;2.63;;;1.10;;
3002;SDS011;1511;51.326;12.344;2023-09-30T00:31:56;2.90;;;1.10;;
3002;SDS011;1511;51.326;12.344;2023-09-30T00:34:22;1.43;;;1.20;;
3002;SDS011;1511;51.326;12.344;2023-09-30T00:36:48;2.67;;;1.20;;
3002;SDS011;1511;51.326;12.344;2023-09-30T00:39:13;2.17;;;0.80;;
3002;SDS011;1511;51.326;12.344;2023-09-30T00:41:39;3.87;;;0.87;;
3002;SDS011;1511;51.326;12.344;2023-09-30T00:44:07;2.60;;;1.57;;
3002;SDS011;1511;51.326;12.344;2023-09-30T00:46:33;2.33;;;1.00;;
3002;SDS011;1511;51.326;12.344;2023-09-30T00:49:06;3.33;;;1.50;;
3002;SDS011;1511;51.326;12.344;2023-09-30T00:51:35;3.03;;;1.40;;
3002;SDS011;1511;51.326;12.344;2023-09-30T00:54:02;3.03;;;1.27;;
3002;SDS011;1511;51.326;12.344;2023-09-30T00:56:31;1.40;;;1.27;;
3002;SDS011;1511;51.326;12.344;2023-09-30T00:59:00;6.07;;;1.17;;
3002;SDS011;1511;51.326;12.344;2023-09-30T01:01:26;3.00;;;1.33;;
3002;SDS011;1511;51.326;12.344;2023-09-30T01:03:52;4.50;;;1.30;;
3002;SDS011;1511;51.326;12.344;2023-09-30T01:06:18;6.20;;;1.20;;
3002;SDS011;1511;51.326;12.344;2023-09-30T01:08:44;2.83;;;1.00;;
3002;SDS011;1511;51.326;12.344;2023-09-30T01:11:10;4.10;;;1.60;;
3002;SDS011;1511;51.326;12.344;2023-09-30T01:13:37;3.17;;;1.17;;
3002;SDS011;1511;51.326;12.344;2023-09-30T01:16:06;1.63;;;1.53;;
3002;SDS011;1511;51.326;12.344;2023-09-30T01:18:35;6.33;;;1.70;;
3002;SDS011;1511;51.326;12.344;2023-09-30T01:21:03;1.20;;;1.10;;
3002;SDS011;1511;51.326;12.344;2023-09-30T01:23:32;4.20;;;1.20;;
3002;SDS011;1511;51.326;12.344;2023-09-30T01:26:03;1.10;;;1.00;;
3002;SDS011;1511;51.326;12.344;2023-09-30T01:28:34;2.80;;;1.10;;
3002;SDS011;1511;51.326;12.344;2023-09-30T01:31:00;3.60;;;1.00;;
3002;SDS011;1511;51.326;12.344;2023-09-30T01:33:26;5.67;;;1.43;;
3002;SDS011;1511;51.326;12.344;2023-09-30T01:35:53;2.87;;;1.37;;
3002;SDS011;1511;51.326;12.344;2023-09-30T01:38:19;1.20;;;1.10;;
3002;SDS011;1511;51.326;12.344;2023-09-30T01:40:46;3.80;;;1.57;;
3002;SDS011;1511;51.326;12.344;2023-09-30T01:43:12;2.80;;;1.30;;
3002;SDS011;1511;51.326;12.344;2023-09-30T01:45:40;6.90;;;2.30;;
3002;SDS011;1511;51.326;12.344;2023-09-30T01:48:06;1.30;;;1.20;;
3002;SDS011;1511;51.326;12.344;2023-09-30T01:50:35;4.27;;;1.97;;
3002;SDS011;1511;51.326;12.344;2023-09-30T01:53:07;3.07;;;1.20;;
3002;SDS011;1511;51.326;12.344;2023-09-30T01:55:34;5.57;;;1.80;;
3002;SDS011;1511;51.326;12.344;2023-09-30T01:58:03;2.30;;;1.37;;
3002;SDS011;1511;51.326;12.344;2023-09-30T02:00:29;5.33;;;1.97;;
3002;SDS011;1511;51.326;12.344;2023-09-30T02:03:02;8.70;;;1.80;;
3002;SDS011;1511;51.326;12.344;2023-09-30T02:05:28;2.90;;;1.67;;
3002;SDS011;1511;51.326;12.344;2023-09-30T02:07:54;2.87;;;1.40;;
3002;SDS011;1511;51.326;12.344;2023-09-30T02:10:20;3.60;;;1.93;;
3002;SDS011;1511;51.326;12.344;2023-09-30T02:12:48;4.77;;;1.57;;
3002;SDS011;1511;51.326;12.344;2023-09-30T02:15:14;5.20;;;1.87;;
3002;SDS011;1511;51.326;12.344;2023-09-30T02:17:41;3.77;;;2.07;;
3002;SDS011;1511;51.326;12.344;2023-09-30T02:20:10;4.07;;;2.03;;
3002;SDS011;1511;51.326;12.344;2023-09-30T02:22:43;3.60;;;2.30;;
3002;SDS011;1511;51.326;12.344;2023-09-30T02:25:11;3.90;;;2.40;;
3002;SDS011;1511;51.326;12.344;2023-09-30T02:27:41;3.67;;;2.20;;
3002;SDS011;1511;51.326;12.344;2023-09-30T02:30:08;6.43;;;2.23;;
3002;SDS011;1511;51.326;12.344;2023-09-30T02:32:39;4.43;;;2.33;;
3002;SDS011;1511;51.326;12.344;2023-09-30T02:35:08;6.53;;;2.80;;
3002;SDS011;1511;51.326;12.344;2023-09-30T02:37:42;3.47;;;1.90;;
3002;SDS011;1511;51.326;12.344;2023-09-30T02:40:08;3.10;;;1.70;;
3002;SDS011;1511;51.326;12.344;2023-09-30T02:42:40;3.63;;;1.50;;
3002;SDS011;1511;51.326;12.344;2023-09-30T02:45:06;3.90;;;2.37;;
3002;SDS011;1511;51.326;12.344;2023-09-30T02:47:34;6.90;;;2.83;;
3002;SDS011;1511;51.326;12.344;2023-09-30T02:50:00;9.60;;;2.33;;
3002;SDS011;1511;51.326;12.344;2023-09-30T02:52:26;3.00;;;2.60;;
3002;SDS011;1511;51.326;12.344;2023-09-30T02:54:54;4.03;;;2.23;;
3002;SDS011;1511;51.326;12.344;2023-09-30T02:57:22;4.40;;;2.10;;
3002;SDS011;1511;51.326;12.344;2023-09-30T02:59:53;5.30;;;2.07;;
3002;SDS011;1511;51.326;12.344;2023-09-30T03:02:19;6.37;;;2.30;;
3002;SDS011;1511;51.326;12.344;2023-09-30T03:04:46;5.93;;;2.50;;
3002;SDS011;1511;51.326;12.344;2023-09-30T03:07:18;3.10;;;1.93;;
3002;SDS011;1511;51.326;12.344;2023-09-30T03:09:45;2.27;;;2.07;;
3002;SDS011;1511;51.326;12.344;2023-09-30T03:12:11;3.03;;;1.80;;
3002;SDS011;1511;51.326;12.344;2023-09-30T03:14:38;3.97;;;2.73;;
3002;SDS011;1511;51.326;12.344;2023-09-30T03:17:07;7.20;;;3.57;;
3002;SDS011;1511;51.326;12.344;2023-09-30T03:19:36;5.50;;;1.97;;
3002;SDS011;1511;51.326;12.344;2023-09-30T03:22:08;4.83;;;2.83;;
3002;SDS011;1511;51.326;12.344;2023-09-30T03:24:37;1.90;;;1.80;;
3002;SDS011;1511;51.326;12.344;2023-09-30T03:27:06;4.73;;;2.50;;
3002;SDS011;1511;51.326;12.344;2023-09-30T03:29:32;6.33;;;2.20;;
3002;SDS011;1511;51.326;12.344;2023-09-30T03:32:01;4.37;;;2.37;;
3002;SDS011;1511;51.326;12.344;2023-09-30T03:34:30;6.53;;;2.60;;
3002;SDS011;1511;51.326;12.344;2023-09-30T03:36:58;4.07;;;2.53;;
3002;SDS011;1511;51.326;12.344;2023-09-30T03:39:24;7.50;;;3.00;;
3002;SDS011;1511;51.326;12.344;2023-09-30T03:41:55;4.40;;;2.33;;
3002;SDS011;1511;51.326;12.344;2023-09-30T03:44:23;3.87;;;2.53;;
3002;SDS011;1511;51.326;12.344;2023-09-30T03:46:51;8.10;;;2.33;;
3002;SDS011;1511;51.326;12.344;2023-09-30T03:49:20;6.33;;;3.93;;
3002;SDS011;1511;51.326;12.344;2023-09-30T03:51:49;5.23;;;2.70;;
3002;SDS011;1511;51.326;12.344;2023-09-30T03:54:18;6.77;;;2.60;;
3002;SDS011;1511;51.326;12.344;2023-09-30T03:56:45;7.70;;;3.00;;
3002;SDS011;1511;51.326;12.344;2023-09-30T03:59:13;6.53;;;2.40;;
3002;SDS011;1511;51.326;12.344;2023-09-30T04:01:41;6.07;;;2.73;;
3002;SDS011;1511;51.326;12.344;2023-09-30T04:04:07;5.10;;;1.80;;
3002;SDS011;1511;51.326;12.344;2023-09-30T04:06:36;7.37;;;2.47;;
3002;SDS011;1511;51.326;12.344;2023-09-30T04:09:05;4.27;;;2.70;;
3002;SDS011;1511;51.326;12.344;2023-09-30T04:11:35;6.17;;;2.30;;
3002;SDS011;1511;51.326;12.344;2023-09-30T04:14:03;6.73;;;2.53;;
3002;SDS011;1511;51.326;12.344;2023-09-30T04:16:33;4.37;;;1.90;;
3002;SDS011;1511;51.326;12.344;2023-09-30T04:19:02;11.17;;;3.07;;
3002;SDS011;1511;51.326;12.344;2023-09-30T04:21:32;5.17;;;3.40;;
3002;SDS011;1511;51.326;12.344;2023-09-30T04:23:59;5.60;;;3.00;;
3002;SDS011;1511;51.326;12.344;2023-09-30T04:26:25;3.90;;;2.70;;
3002;SDS011;1511;51.326;12.344;2023-09-30T04:28:51;3.67;;;2.23;;
3002;SDS011;1511;51.326;12.344;2023-09-30T04:31:18;9.37;;;3.27;;
3002;SDS011;1511;51.326;12.344;2023-09-30T04:33:48;4.03;;;2.17;;
3002;SDS011;1511;51.326;12.344;2023-09-30T04:36:21;5.80;;;2.30;;
3002;SDS011;1511;51.326;12.344;2023-09-30T04:38:50;13.47;;;3.83;;
3002;SDS011;1511;51.326;12.344;2023-09-30T04:41:15;3.57;;;1.90;;
3002;SDS011;1511;51.326;12.344;2023-09-30T04:43:41;4.23;;;2.10;;
3002;SDS011;1511;51.326;12.344;2023-09-30T04:46:08;5.50;;;2.63;;
3002;SDS011;1511;51.326;12.344;2023-09-30T04:48:34;8.70;;;3.10;;
3002;SDS011;1511;51.326;12.344;2023-09-30T04:51:05;6.10;;;1.97;;
3002;SDS011;1511;51.326;12.344;2023-09-30T04:53:41;7.87;;;2.30;;
3002;SDS011;1511;51.326;12.344;2023-09-30T04:56:07;5.40;;;2.47;;
3002;SDS011;1511;51.326;12.344;2023-09-30T04:58:32;6.37;;;2.10;;
3002;SDS011;1511;51.326;12.344;2023-09-30T05:00:58;6.13;;;2.40;;
3002;SDS011;1511;51.326;12.344;2023-09-30T05:03:26;5.43;;;2.07;;
3002;SDS011;1511;51.326;12.344;2023-09-30T05:05:52;6.87;;;3.00;;
3002;SDS011;1511;51.326;12.344;2023-09-30T05:08:20;5.07;;;2.30;;
3002;SDS011;1511;51.326;12.344;2023-09-30T05:10:53;4.80;;;2.70;;
3002;SDS011;1511;51.326;12.344;2023-09-30T05:13:20;4.53;;;2.30;;
3002;SDS011;1511;51.326;12.344;2023-09-30T05:15:51;6.47;;;2.20;;
3002;SDS011;1511;51.326;12.344;2023-09-30T05:18:18;6.77;;;2.57;;
3002;SDS011;1511;51.326;12.344;2023-09-30T05:20:46;5.73;;;2.70;;
3002;SDS011;1511;51.326;12.344;2023-09-30T05:23:11;5.17;;;2.70;;
3002;SDS011;1511;51.326;12.344;2023-09-30T05:25:39;8.73;;;3.00;;
3002;SDS011;1511;51.326;12.344;2023-09-30T05:28:06;5.60;;;2.73;;
3002;SDS011;1511;51.326;12.344;2023-09-30T05:30:32;8.67;;;2.50;;
3002;SDS011;1511;51.326;12.344;2023-09-30T05:33:01;6.77;;;3.10;;
3002;SDS011;1511;51.326;12.344;2023-09-30T05:35:28;8.80;;;2.73;;
3002;SDS011;1511;51.326;12.344;2023-09-30T05:37:55;4.43;;;2.80;;
3002;SDS011;1511;51.326;12.344;2023-09-30T05:40:23;4.90;;;2.10;;
3002;SDS011;1511;51.326;12.344;2023-09-30T05:42:50;8.10;;;2.03;;
3002;SDS011;1511;51.326;12.344;2023-09-30T05:45:23;3.20;;;1.90;;
3002;SDS011;1511;51.326;12.344;2023-09-30T05:47:49;4.37;;;2.07;;
3002;SDS011;1511;51.326;12.344;2023-09-30T05:50:19;4.80;;;2.23;;
3002;SDS011;1511;51.326;12.344;2023-09-30T05:52:52;4.83;;;2.20;;
3002;SDS011;1511;51.326;12.344;2023-09-30T05:55:22;5.40;;;2.13;;
3002;SDS011;1511;51.326;12.344;2023-09-30T05:57:52;6.60;;;2.60;;
3002;SDS011;1511;51.326;12.344;2023-09-30T06:00:19;7.90;;;3.37;;
3002;SDS011;1511;51.326;12.344;2023-09-30T06:03:05;8.33;;;3.40;;
3002;SDS011;1511;51.326;12.344;2023-09-30T06:05:38;9.27;;;3.00;;
3002;SDS011;1511;51.326;12.344;2023-09-30T06:08:05;6.63;;;3.60;;
3002;SDS011;1511;51.326;12.344;2023-09-30T06:10:35;11.00;;;3.50;;
3002;SDS011;1511;51.326;12.344;2023-09-30T06:13:03;8.57;;;3.40;;
3002;SDS011;1511;51.326;12.344;2023-09-30T06:15:34;7.90;;;3.20;;
3002;SDS011;1511;51.326;12.344;2023-09-30T06:18:08;5.40;;;3.37;;
3002;SDS011;1511;51.326;12.344;2023-09-30T06:20:37;17.37;;;4.20;;
3002;SDS011;1511;51.326;12.344;2023-09-30T06:23:03;6.53;;;2.47;;
3002;SDS011;1511;51.326;12.344;2023-09-30T06:25:29;4.67;;;2.47;;
3002;SDS011;1511;51.326;12.344;2023-09-30T06:27:58;8.93;;;4.30;;
3002;SDS011;1511;51.326;12.344;2023-09-30T06:30:24;8.50;;;3.53;;
3002;SDS011;1511;51.326;12.344;2023-09-30T06:32:59;5.03;;;2.27;;
3002;SDS011;1511;51.326;12.344;2023-09-30T06:35:26;5.87;;;2.47;;
3002;SDS011;1511;51.326;12.344;2023-09-30T06:37:58;6.63;;;3.20;;
3002;SDS011;1511;51.326;12.344;2023-09-30T06:40:24;7.17;;;2.73;;
3002;SDS011;1511;51.326;12.344;2023-09-30T06:42:50;4.37;;;2.67;;
3002;SDS011;1511;51.326;12.344;2023-09-30T06:45:17;6.83;;;2.73;;
3002;SDS011;1511;51.326;12.344;2023-09-30T06:47:42;7.60;;;2.40;;
3002;SDS011;1511;51.326;12.344;2023-09-30T06:50:13;5.30;;;2.80;;
3002;SDS011;1511;51.326;12.344;2023-09-30T06:52:44;12.10;;;5.23;;
3002;SDS011;1511;51.326;12.344;2023-09-30T06:55:14;8.23;;;2.40;;
3002;SDS011;1511;51.326;12.344;2023-09-30T06:57:41;5.97;;;2.37;;
3002;SDS011;1511;51.326;12.344;2023-09-30T07:02:38;3.83;;;1.77;;
3002;SDS011;1511;51.326;12.344;2023-09-30T07:05:08;2.93;;;2.10;;
3002;SDS011;1511;51.326;12.344;2023-09-30T07:07:38;6.30;;;1.93;;
3002;SDS011;1511;51.326;12.344;2023-09-30T07:10:08;5.93;;;2.67;;
3002;SDS011;1511;51.326;12.344;2023-09-30T07:12:34;7.17;;;2.63;;
3002;SDS011;1511;51.326;12.344;2023-09-30T07:15:03;8.10;;;2.40;;
3002;SDS011;1511;51.326;12.344;2023-09-30T07:17:31;3.63;;;2.27;;
3002;SDS011;1511;51.326;12.344;2023-09-30T07:20:02;4.97;;;1.80;;
3002;SDS011;1511;51.326;12.344;2023-09-30T07:22:35;5.43;;;1.73;;
3002;SDS011;1511;51.326;12.344;2023-09-30T07:25:01;3.77;;;1.87;;
3002;SDS011;1511;51.326;12.344;2023-09-30T07:27:29;6.37;;;2.83;;
3002;SDS011;1511;51.326;12.344;2023-09-30T07:29:57;8.50;;;2.43;;
3002;SDS011;1511;51.326;12.344;2023-09-30T07:32:24;5.73;;;2.10;;
3002;SDS011;1511;51.326;12.344;2023-09-30T07:34:50;4.80;;;1.80;;
3002;SDS011;1511;51.326;12.344;2023-09-30T07:37:20;5.70;;;2.00;;
3002;SDS011;1511;51.326;12.344;2023-09-30T07:39:45;5.40;;;2.23;;
3002;SDS011;1511;51.326;12.344;2023-09-30T07:42:11;11.83;;;3.57;;
3002;SDS011;1511;51.326;12.344;2023-09-30T07:44:37;10.73;;;3.33;;
3002;SDS011;1511;51.326;12.344;2023-09-30T07:47:05;21.30;;;4.17;;
3002;SDS011;1511;51.326;12.344;2023-09-30T07:49:32;19.10;;;4.23;;
3002;SDS011;1511;51.326;12.344;2023-09-30T07:52:00;11.90;;;3.30;;
3002;SDS011;1511;51.326;12.344;2023-09-30T07:54:28;17.03;;;4.77;;
3002;SDS011;1511;51.326;12.344;2023-09-30T07:56:54;12.87;;;3.80;;
3002;SDS011;1511;51.326;12.344;2023-09-30T07:59:22;10.60;;;3.50;;
3002;SDS011;1511;51.326;12.344;2023-09-30T08:01:50;20.13;;;3.17;;
3002;SDS011;1511;51.326;12.344;2023-09-30T08:04:19;12.20;;;3.60;;
3002;SDS011;1511;51.326;12.344;2023-09-30T08:06:50;13.63;;;4.07;;
3002;SDS011;1511;51.326;12.344;2023-09-30T08:09:16;14.80;;;3.53;;
3002;SDS011;1511;51.326;12.344;2023-09-30T08:11:43;7.70;;;3.23;;
3002;SDS011;1511;51.326;12.344;2023-09-30T08:14:11;7.87;;;2.10;;
3002;SDS011;1511;51.326;12.344;2023-09-30T08:16:37;16.10;;;3.37;;
3002;SDS011;1511;51.326;12.344;2023-09-30T08:19:03;8.93;;;3.50;;
3002;SDS011;1511;51.326;12.344;2023-09-30T08:21:30;12.73;;;3.87;;
3002;SDS011;1511;51.326;12.344;2023-09-30T08:23:58;9.73;;;2.70;;
3002;SDS011;1511;51.326;12.344;2023-09-30T08:26:24;11.70;;;3.00;;
3002;SDS011;1511;51.326;12.344;2023-09-30T08:28:53;18.57;;;3.00;;
3002;SDS011;1511;51.326;12.344;2023-09-30T08:31:18;6.10;;;2.40;;
3002;SDS011;1511;51.326;12.344;2023-09-30T08:33:47;13.37;;;3.57;;
3002;SDS011;1511;51.326;12.344;2023-09-30T08:36:13;5.30;;;2.57;;
3002;SDS011;1511;51.326;12.344;2023-09-30T08:38:40;6.53;;;2.83;;
3002;SDS011;1511;51.326;12.344;2023-09-30T08:41:09;5.77;;;2.30;;
3002;SDS011;1511;51.326;12.344;2023-09-30T08:43:38;5.87;;;1.87;;
3002;SDS011;1511;51.326;12.344;2023-09-30T08:46:05;5.37;;;1.30;;
3002;SDS011;1511;51.326;12.344;2023-09-30T08:48:33;4.53;;;1.83;;
3002;SDS011;1511;51.326;12.344;2023-09-30T08:51:02;9.30;;;2.23;;
3002;SDS011;1511;51.326;12.344;2023-09-30T08:53:28;4.87;;;1.70;;
3002;SDS011;1511;51.326;12.344;2023-09-30T08:55:56;5.23;;;1.80;;
3002;SDS011;1511;51.326;12.344;2023-09-30T08:58:29;4.10;;;1.50;;
3002;SDS011;1511;51.326;12.344;2023-09-30T09:01:00;5.60;;;2.00;;
3002;SDS011;1511;51.326;12.344;2023-09-30T09:03:27;3.43;;;1.30;;
3002;SDS011;1511;51.326;12.344;2023-09-30T09:05:57;3.47;;;1.50;;
3002;SDS011;1511;51.326;12.344;2023-09-30T09:08:25;9.77;;;1.60;;
3002;SDS011;1511;51.326;12.344;2023-09-30T09:10:58;6.00;;;1.87;;
3002;SDS011;1511;51.326;12.344;2023-09-30T09:13:45;7.93;;;2.10;;
3002;SDS011;1511;51.326;12.344;2023-09-30T09:16:21;3.97;;;1.50;;
3002;SDS011;1511;51.326;12.344;2023-09-30T09:18:48;8.93;;;2.07;;
3002;SDS011;1511;51.326;12.344;2023-09-30T09:21:19;4.43;;;1.70;;
3002;SDS011;1511;51.326;12.344;2023-09-30T09:23:51;9.27;;;1.83;;
3002;SDS011;1511;51.326;12.344;2023-09-30T09:26:29;5.10;;;2.70;;
3002;SDS011;1511;51.326;12.344;2023-09-30T09:29:02;7.30;;;1.40;;
3002;SDS011;1511;51.326;12.344;2023-09-30T09:31:31;4.53;;;1.63;;
3002;SDS011;1511;51.326;12.344;2023-09-30T09:34:01;6.67;;;2.23;;
3002;SDS011;1511;51.326;12.344;2023-09-30T09:36:41;7.43;;;1.63;;
3002;SDS011;1511;51.326;12.344;2023-09-30T09:39:09;4.37;;;1.50;;
3002;SDS011;1511;51.326;12.344;2023-09-30T09:41:56;6.00;;;2.03;;
3002;SDS011;1511;51.326;12.344;2023-09-30T09:44:25;3.83;;;1.27;;
3002;SDS011;1511;51.326;12.344;2023-09-30T09:46:53;4.57;;;1.83;;
3002;SDS011;1511;51.326;12.344;2023-09-30T09:49:19;6.10;;;1.87;;
3002;SDS011;1511;51.326;12.344;2023-09-30T09:51:47;5.77;;;1.67;;
3002;SDS011;1511;51.326;12.344;2023-09-30T09:54:14;12.13;;;1.50;;
3002;SDS011;1511;51.326;12.344;2023-09-30T09:56:42;4.50;;;1.73;;
3002;SDS011;1511;51.326;12.344;2023-09-30T09:59:13;10.40;;;2.40;;
3002;SDS011;1511;51.326;12.344;2023-09-30T10:01:42;3.43;;;1.40;;
3002;SDS011;1511;51.326;12.344;2023-09-30T10:04:10;5.80;;;2.23;;
3002;SDS011;1511;51.326;12.344;2023-09-30T10:06:40;4.53;;;1.03;;
3002;SDS011;1511;51.326;12.344;2023-09-30T10:09:10;8.20;;;1.50;;
3002;SDS011;1511;51.326;12.344;2023-09-30T10:11:39;6.87;;;2.63;;
3002;SDS011;1511;51.326;12.344;2023-09-30T10:14:05;3.77;;;1.73;;
3002;SDS011;1511;51.326;12.344;2023-09-30T10:21:39;6.00;;;2.10;;
3002;SDS011;1511;51.326;12.344;2023-09-30T10:24:52;4.47;;;1.53;;
3002;SDS011;1511;51.326;12.344;2023-09-30T10:29:57;4.03;;;1.53;;
3002;SDS011;1511;51.326;12.344;2023-09-30T10:40:47;6.93;;;2.03;;
3002;SDS011;1511;51.326;12.344;2023-09-30T10:48:51;6.30;;;2.17;;
3002;SDS011;1511;51.326;12.344;2023-09-30T10:51:17;2.80;;;1.13;;
3002;SDS011;1511;51.326;12.344;2023-09-30T10:56:22;7.53;;;0.90;;
3002;SDS011;1511;51.326;12.344;2023-09-30T10:58:52;6.90;;;1.50;;
3002;SDS011;1511;51.326;12.344;2023-09-30T11:01:19;4.17;;;1.30;;
3002;SDS011;1511;51.326;12.344;2023-09-30T11:03:47;6.07;;;1.63;;
3002;SDS011;1511;51.326;12.344;2023-09-30T11:06:18;3.83;;;1.40;;
3002;SDS011;1511;51.326;12.344;2023-09-30T11:11:58;5.00;;;1.33;;
3002;SDS011;1511;51.326;12.344;2023-09-30T11:16:53;5.70;;;1.27;;
3002;SDS011;1511;51.326;12.344;2023-09-30T11:19:21;4.93;;;1.10;;
3002;SDS011;1511;51.326;12.344;2023-09-30T11:21:52;6.67;;;1.57;;
3002;SDS011;1511;51.326;12.344;2023-09-30T11:24:23;1.93;;;1.20;;
3002;SDS011;1511;51.326;12.344;2023-09-30T11:26:53;2.70;;;1.43;;
3002;SDS011;1511;51.326;12.344;2023-09-30T11:29:27;5.97;;;1.27;;
3002;SDS011;1511;51.326;12.344;2023-09-30T11:31:55;4.53;;;1.53;;
3002;SDS011;1511;51.326;12.344;2023-09-30T11:34:31;2.50;;;1.00;;
3002;SDS011;1511;51.326;12.344;2023-09-30T11:37:00;5.80;;;1.80;;
3002;SDS011;1511;51.326;12.344;2023-09-30T11:39:30;4.50;;;1.30;;
3002;SDS011;1511;51.326;12.344;2023-09-30T11:41:56;3.10;;;0.80;;
3002;SDS011;1511;51.326;12.344;2023-09-30T11:44:23;7.07;;;1.60;;
3002;SDS011;1511;51.326;12.344;2023-09-30T11:47:04;5.73;;;1.20;;
3002;SDS011;1511;51.326;12.344;2023-09-30T11:49:35;5.40;;;1.30;;
3002;SDS011;1511;51.326;12.344;2023-09-30T11:52:09;3.67;;;1.40;;
3002;SDS011;1511;51.326;12.344;2023-09-30T11:57:09;5.67;;;1.33;;
3002;SDS011;1511;51.326;12.344;2023-09-30T11:59:40;3.70;;;1.27;;
3002;SDS011;1511;51.326;12.344;2023-09-30T12:02:10;3.50;;;1.30;;
3002;SDS011;1511;51.326;12.344;2023-09-30T12:04:40;5.17;;;1.77;;
3002;SDS011;1511;51.326;12.344;2023-09-30T12:07:10;4.93;;;1.40;;
3002;SDS011;1511;51.326;12.344;2023-09-30T12:09:39;7.80;;;1.27;;
3002;SDS011;1511;51.326;12.344;2023-09-30T12:12:08;3.63;;;1.40;;
3002;SDS011;1511;51.326;12.344;2023-09-30T12:14:34;2.03;;;1.00;;
3002;SDS011;1511;51.326;12.344;2023-09-30T12:17:02;4.07;;;1.77;;
3002;SDS011;1511;51.326;12.344;2023-09-30T12:19:30;2.93;;;1.30;;
3002;SDS011;1511;51.326;12.344;2023-09-30T12:21:56;4.47;;;1.47;;
3002;SDS011;1511;51.326;12.344;2023-09-30T12:24:24;7.03;;;1.27;;
3002;SDS011;1511;51.326;12.344;2023-09-30T12:26:50;4.07;;;1.30;;
3002;SDS011;1511;51.326;12.344;2023-09-30T12:29:19;4.53;;;1.37;;
3002;SDS011;1511;51.326;12.344;2023-09-30T12:31:48;4.20;;;1.23;;
3002;SDS011;1511;51.326;12.344;2023-09-30T12:34:18;5.40;;;2.03;;
3002;SDS011;1511;51.326;12.344;2023-09-30T12:36:44;5.83;;;1.53;;
3002;SDS011;1511;51.326;12.344;2023-09-30T12:39:10;4.77;;;1.50;;
3002;SDS011;1511;51.326;12.344;2023-09-30T12:41:45;4.20;;;1.00;;
3002;SDS011;1511;51.326;12.344;2023-09-30T12:44:13;4.57;;;1.10;;
3002;SDS011;1511;51.326;12.344;2023-09-30T12:46:42;8.90;;;1.43;;
3002;SDS011;1511;51.326;12.344;2023-09-30T12:49:10;3.00;;;1.73;;
3002;SDS011;1511;51.326;12.344;2023-09-30T12:51:36;1.63;;;0.80;;
3002;SDS011;1511;51.326;12.344;2023-09-30T12:54:03;2.97;;;1.30;;
3002;SDS011;1511;51.326;12.344;2023-09-30T12:56:29;2.00;;;1.17;;
3002;SDS011;1511;51.326;12.344;2023-09-30T12:58:55;3.73;;;1.90;;
3002;SDS011;1511;51.326;12.344;2023-09-30T13:01:22;2.30;;;1.23;;
3002;SDS011;1511;51.326;12.344;2023-09-30T13:03:48;2.53;;;1.47;;
3002;SDS011;1511;51.326;12.344;2023-09-30T13:06:15;7.47;;;1.80;;
3002;SDS011;1511;51.326;12.344;2023-09-30T13:08:46;10.13;;;1.53;;
3002;SDS011;1511;51.326;12.344;2023-09-30T13:11:15;4.00;;;1.10;;
3002;SDS011;1511;51.326;12.344;2023-09-30T13:13:41;3.50;;;0.80;;
3002;SDS011;1511;51.326;12.344;2023-09-30T13:16:11;1.80;;;0.90;;
3002;SDS011;1511;51.326;12.344;2023-09-30T13:18:39;4.23;;;0.87;;
3002;SDS011;1511;51.326;12.344;2023-09-30T13:21:07;3.43;;;1.43;;
3002;SDS011;1511;51.326;12.344;2023-09-30T13:23:34;1.60;;;1.07;;
3002;SDS011;1511;51.326;12.344;2023-09-30T13:26:00;3.10;;;1.00;;
3002;SDS011;1511;51.326;12.344;2023-09-30T13:28:27;1.70;;;1.47;;
3002;SDS011;1511;51.326;12.344;2023-09-30T13:30:55;3.60;;;1.13;;
3002;SDS011;1511;51.326;12.344;2023-09-30T13:33:24;3.63;;;1.13;;
3002;SDS011;1511;51.326;12.344;2023-09-30T13:35:50;2.20;;;1.10;;
3002;SDS011;1511;51.326;12.344;2023-09-30T13:38:18;5.93;;;1.20;;
3002;SDS011;1511;51.326;12.344;2023-09-30T13:40:44;2.00;;;0.80;;
3002;SDS011;1511;51.326;12.344;2023-09-30T13:43:11;1.37;;;0.93;;
3002;SDS011;1511;51.326;12.344;2023-09-30T13:45:36;2.30;;;1.10;;
3002;SDS011;1511;51.326;12.344;2023-09-30T13:48:07;4.10;;;1.20;;
3002;SDS011;1511;51.326;12.344;2023-09-30T13:50:33;2.87;;;1.03;;
3002;SDS011;1511;51.326;12.344;2023-09-30T13:53:01;3.20;;;0.90;;
3002;SDS011;1511;51.326;12.344;2023-09-30T13:55:27;2.83;;;1.03;;
3002;SDS011;1511;51.326;12.344;2023-09-30T13:57:53;10.20;;;1.33;;
3002;SDS011;1511;51.326;12.344;2023-09-30T14:00:24;2.97;;;1.43;;
3002;SDS011;1511;51.326;12.344;2023-09-30T14:02:50;1.90;;;0.97;;
3002;SDS011;1511;51.326;12.344;2023-09-30T14:05:16;4.87;;;1.23;;
3002;SDS011;1511;51.326;12.344;2023-09-30T14:07:42;6.13;;;1.43;;
3002;SDS011;1511;51.326;12.344;2023-09-30T14:10:08;4.40;;;1.67;;
3002;SDS011;1511;51.326;12.344;2023-09-30T14:12:38;5.43;;;1.50;;
3002;SDS011;1511;51.326;12.344;2023-09-30T14:15:07;4.40;;;1.03;;
3002;SDS011;1511;51.326;12.344;2023-09-30T14:17:35;2.97;;;1.10;;
3002;SDS011;1511;51.326;12.344;2023-09-30T14:20:03;2.80;;;1.10;;
3002;SDS011;1511;51.326;12.344;2023-09-30T14:22:30;1.53;;;1.10;;
3002;SDS011;1511;51.326;12.344;2023-09-30T14:24:56;2.93;;;1.00;;
3002;SDS011;1511;51.326;12.344;2023-09-30T14:27:24;5.70;;;0.93;;
3002;SDS011;1511;51.326;12.344;2023-09-30T14:29:51;5.43;;;1.30;;
3002;SDS011;1511;51.326;12.344;2023-09-30T14:32:16;2.73;;;1.00;;
3002;SDS011;1511;51.326;12.344;2023-09-30T14:34:42;6.97;;;1.33;;
3002;SDS011;1511;51.326;12.344;2023-09-30T14:37:08;2.23;;;1.40;;
3002;SDS011;1511;51.326;12.344;2023-09-30T14:39:34;6.97;;;1.27;;
3002;SDS011;1511;51.326;12.344;2023-09-30T14:42:00;2.27;;;1.40;;
3002;SDS011;1511;51.326;12.344;2023-09-30T14:44:28;3.00;;;1.10;;
3002;SDS011;1511;51.326;12.344;2023-09-30T14:46:56;1.73;;;0.90;;
3002;SDS011;1511;51.326;12.344;2023-09-30T14:49:24;3.53;;;0.97;;
3002;SDS011;1511;51.326;12.344;2023-09-30T14:51:52;1.67;;;1.00;;
3002;SDS011;1511;51.326;12.344;2023-09-30T14:54:18;3.33;;;0.93;;
3002;SDS011;1511;51.326;12.344;2023-09-30T14:56:47;2.40;;;1.13;;
3002;SDS011;1511;51.326;12.344;2023-09-30T14:59:15;4.20;;;0.93;;
3002;SDS011;1511;51.326;12.344;2023-09-30T15:01:41;1.50;;;0.80;;
3002;SDS011;1511;51.326;12.344;2023-09-30T15:04:07;4.33;;;1.00;;
3002;SDS011;1511;51.326;12.344;2023-09-30T15:06:33;1.87;;;0.90;;
3002;SDS011;1511;51.326;12.344;2023-09-30T15:09:02;3.33;;;1.10;;
3002;SDS011;1511;51.326;12.344;2023-09-30T15:11:34;3.50;;;1.10;;
3002;SDS011;1511;51.326;12.344;2023-09-30T15:14:03;3.67;;;0.90;;
3002;SDS011;1511;51.326;12.344;2023-09-30T15:16:31;6.53;;;0.90;;
3002;SDS011;1511;51.326;12.344;2023-09-30T15:18:58;4.70;;;1.33;;
3002;SDS011;1511;51.326;12.344;2023-09-30T15:21:24;1.57;;;0.80;;
3002;SDS011;1511;51.326;12.344;2023-09-30T15:23:52;3.77;;;1.27;;
3002;SDS011;1511;51.326;12.344;2023-09-30T15:26:24;7.10;;;1.37;;
3002;SDS011;1511;51.326;12.344;2023-09-30T15:28:49;2.20;;;1.20;;
3002;SDS011;1511;51.326;12.344;2023-09-30T15:31:16;1.77;;;0.90;;
3002;SDS011;1511;51.326;12.344;2023-09-30T15:33:42;3.33;;;1.23;;
3002;SDS011;1511;51.326;12.344;2023-09-30T15:36:10;4.80;;;1.20;;
3002;SDS011;1511;51.326;12.344;2023-09-30T15:38:42;2.87;;;1.10;;
3002;SDS011;1511;51.326;12.344;2023-09-30T15:41:11;3.47;;;1.33;;